Historique des stations

Station météo de Ménétréols-sous-Vatan

Altitude de la station : 192 m







Données météorologiques pour le 18/05/2021
Date
Heure
Températures Humidité Point de rosée Vitesse
du vent
Direction Rafales Windchill Pression Pluviométrie
Cumul
Date
Heure
Températures Humidité Point de rosée Vitesse
du vent
Direction Rafales Windchill Pression Pluviométrie
Cumul
18/05/2021 13:0012.6 °C75 %8.3 °C5 km/hE10 km/h12.8 1017 hPa3 mm
18/05/2021 12:4512.9 °C74 %8.3 °C3 km/hE10 km/h12.8 1017 hPa3 mm
18/05/2021 12:3012.7 °C77 %8.9 °C-ENE8 km/h12.8 1017 hPa3 mm
18/05/2021 12:1512.3 °C78 %8.3 °C-ESE10 km/h12.2 1017 hPa3 mm
18/05/2021 12:0012.0 °C80 %8.9 °C5 km/hE10 km/h12.2 1017 hPa3 mm
18/05/2021 11:4511.8 °C83 %8.9 °C3 km/hE8 km/h11.7 1018 hPa3 mm
18/05/2021 11:3011.6 °C83 %8.9 °C6 km/hENE8 km/h11.7 1018 hPa3 mm
18/05/2021 11:1511.3 °C86 %8.9 °C-E5 km/h11.1 1018 hPa3 mm
18/05/2021 11:0011.2 °C85 %8.9 °C5 km/hENE10 km/h11.1 1018 hPa3 mm
18/05/2021 10:4511.2 °C87 %9.4 °C5 km/hE13 km/h11.1 1018 hPa3 mm
18/05/2021 10:3010.7 °C89 %8.9 °C8 km/hE10 km/h9.4 1018 hPa3 mm
18/05/2021 10:1510.4 °C91 %8.9 °C-ENE2 km/h10.6 1018 hPa3 mm
18/05/2021 10:0010.0 °C92 %8.9 °C-ENE6 km/h10.0 1018 hPa3 mm
18/05/2021 09:459.7 °C93 %8.9 °C-E10 km/h10.0 1018 hPa3 mm
18/05/2021 09:309.6 °C94 %8.9 °C-E6 km/h9.4 1018 hPa3 mm
18/05/2021 09:159.3 °C94 %8.3 °C2 km/hE8 km/h9.4 1018 hPa3 mm
18/05/2021 09:009.3 °C94 %8.3 °C-ENE5 km/h9.4 1018 hPa3 mm
18/05/2021 08:459.1 °C95 %8.3 °C-E6 km/h8.9 1018 hPa3 mm
18/05/2021 08:309.0 °C95 %8.3 °C-ENE10 km/h8.9 1018 hPa3 mm
18/05/2021 08:158.8 °C95 %8.3 °C-ENE6 km/h8.9 1018 hPa3 mm
18/05/2021 08:008.7 °C95 %7.8 °C5 km/hENE10 km/h8.3 1018 hPa3 mm
18/05/2021 07:458.6 °C95 %7.8 °C5 km/hENE18 km/h8.3 1018 hPa3 mm
18/05/2021 07:308.6 °C95 %7.8 °C5 km/hENE13 km/h8.3 1018 hPa3 mm
18/05/2021 07:158.5 °C95 %7.8 °C2 km/hENE14 km/h8.3 1018 hPa3 mm
18/05/2021 07:008.5 °C95 %7.8 °C8 km/hNE16 km/h6.7 1018 hPa3 mm
18/05/2021 06:458.4 °C95 %7.8 °C8 km/hENE11 km/h6.7 1018 hPa3 mm
18/05/2021 06:308.4 °C95 %7.8 °C3 km/hNE6 km/h7.8 1018 hPa3 mm
18/05/2021 06:158.4 °C95 %7.8 °C2 km/hENE8 km/h8.3 1018 hPa3 mm
18/05/2021 06:008.4 °C95 %7.8 °C3 km/hENE6 km/h7.8 1018 hPa3 mm
18/05/2021 05:448.5 °C95 %7.8 °C5 km/hENE8 km/h7.8 1018 hPa3 mm
18/05/2021 05:298.5 °C95 %7.8 °C3 km/hENE10 km/h7.8 1018 hPa3 mm
18/05/2021 05:158.6 °C95 %7.8 °C6 km/hENE11 km/h7.2 1018 hPa3 mm
18/05/2021 04:598.6 °C95 %7.8 °C5 km/hENE11 km/h8.3 1018 hPa3 mm
18/05/2021 04:458.6 °C95 %7.8 °C3 km/hENE10 km/h7.8 1018 hPa3 mm
18/05/2021 04:308.6 °C95 %7.8 °C5 km/hENE6 km/h7.8 1018 hPa3 mm
18/05/2021 04:158.5 °C95 %7.8 °C5 km/hENE10 km/h7.8 1018 hPa3 mm
18/05/2021 03:598.4 °C95 %7.8 °C5 km/hENE8 km/h7.8 1018 hPa3 mm
18/05/2021 03:458.2 °C96 %7.8 °C11 km/hNE13 km/h6.1 1018 hPa3 mm
18/05/2021 03:308.0 °C96 %7.2 °C10 km/hE18 km/h6.1 1018 hPa3 mm
18/05/2021 03:157.9 °C95 %7.2 °C6 km/hENE11 km/h6.7 1018 hPa3 mm
18/05/2021 03:007.9 °C96 %7.2 °C8 km/hENE16 km/h6.1 1018 hPa3 mm
18/05/2021 02:458.1 °C96 %7.8 °C11 km/hENE18 km/h6.1 1018 hPa3 mm
18/05/2021 02:307.9 °C96 %7.2 °C6 km/hENE18 km/h6.7 1018 hPa3 mm
18/05/2021 02:158.1 °C97 %7.8 °C14 km/hNE16 km/h5.6 1018 hPa3 mm
18/05/2021 02:008.1 °C97 %7.8 °C8 km/hNE21 km/h6.7 1018 hPa3 mm
18/05/2021 01:458.1 °C97 %7.8 °C13 km/hNE18 km/h6.1 1018 hPa3 mm
18/05/2021 01:298.1 °C97 %7.8 °C11 km/hENE21 km/h6.1 1018 hPa3 mm
18/05/2021 01:158.1 °C97 %7.8 °C14 km/hNE16 km/h5.6 1018 hPa3 mm
18/05/2021 01:008.1 °C96 %7.8 °C10 km/hENE16 km/h6.7 1018 hPa3 mm
18/05/2021 00:458.1 °C96 %7.8 °C8 km/hNE11 km/h6.7 1018 hPa3 mm
18/05/2021 00:298.3 °C96 %7.8 °C8 km/hENE13 km/h6.7 1018 hPa3 mm
18/05/2021 00:158.2 °C96 %7.8 °C6 km/hENE8 km/h7.2 1018 hPa3 mm
18/05/2021 00:008.4 °C96 %7.8 °C5 km/hENE11 km/h7.8 1018 hPa3 mm


Minima :

Température : 7.9 °C
Humidité : 74 %
Point de rosée : 7.2 °C
Vent moyen : 2 km/h
Windchill : 5.6
Pression atm. : 1017 hPa
Maxima :

Température : 12.9 °C
Humidité : 97 %
Point de rosée : 9.4 °C
Vent moyen : 14 km/h
Windchill : 12.8
Pression atm. : 1018 hPa
Rafales max : 21 km/h
Cumul de pluie sur 24H : 3 mm

Ménétréols-sous-Vatan est une commune du département Indre (36).
La station météorologique du réseau de l'association la plus proche de Ménétréols-sous-Vatan est celle de Luçay-le-Libre



Icône Facebook Association Météo Centre Icône Twitter Association Météo Centre Icône Chaîne Youtube Association Météo Centre Icône contact Association Météo Centre Icône Insta Association Météo Centre